sensor_id;sensor_type;location;lat;lon;timestamp;P1;durP1;ratioP1;P2;durP2;ratioP2
65665;SDS011;52365;47.464;18.976;2023-03-11T00:00:27;0.47;;;0.30;;
65665;SDS011;52365;47.464;18.976;2023-03-11T00:01:06;0.60;;;0.30;;
65665;SDS011;52365;47.464;18.976;2023-03-11T00:01:42;1.10;;;0.40;;
65665;SDS011;52365;47.464;18.976;2023-03-11T00:02:18;0.90;;;0.40;;
65665;SDS011;52365;47.464;18.976;2023-03-11T00:02:55;1.40;;;0.40;;
65665;SDS011;52365;47.464;18.976;2023-03-11T00:03:32;1.80;;;0.40;;
65665;SDS011;52365;47.464;18.976;2023-03-11T00:04:08;2.25;;;0.40;;
65665;SDS011;52365;47.464;18.976;2023-03-11T00:04:44;0.60;;;0.40;;
65665;SDS011;52365;47.464;18.976;2023-03-11T00:06:01;2.03;;;0.30;;
65665;SDS011;52365;47.464;18.976;2023-03-11T00:06:37;1.05;;;0.30;;
65665;SDS011;52365;47.464;18.976;2023-03-11T00:07:13;0.70;;;0.30;;
65665;SDS011;52365;47.464;18.976;2023-03-11T00:07:49;0.57;;;0.35;;
65665;SDS011;52365;47.464;18.976;2023-03-11T00:08:26;0.55;;;0.40;;
65665;SDS011;52365;47.464;18.976;2023-03-11T00:09:02;0.98;;;0.40;;
65665;SDS011;52365;47.464;18.976;2023-03-11T00:09:39;0.77;;;0.30;;
65665;SDS011;52365;47.464;18.976;2023-03-11T00:10:17;0.80;;;0.50;;
65665;SDS011;52365;47.464;18.976;2023-03-11T00:10:56;1.00;;;0.40;;
65665;SDS011;52365;47.464;18.976;2023-03-11T00:11:35;0.90;;;0.30;;
65665;SDS011;52365;47.464;18.976;2023-03-11T00:12:11;1.20;;;0.30;;
65665;SDS011;52365;47.464;18.976;2023-03-11T00:12:47;0.62;;;0.30;;
65665;SDS011;52365;47.464;18.976;2023-03-11T00:13:23;1.77;;;0.35;;
65665;SDS011;52365;47.464;18.976;2023-03-11T00:13:59;1.40;;;0.40;;
65665;SDS011;52365;47.464;18.976;2023-03-11T00:14:35;0.98;;;0.40;;
65665;SDS011;52365;47.464;18.976;2023-03-11T00:15:12;1.20;;;0.30;;
65665;SDS011;52365;47.464;18.976;2023-03-11T00:15:49;0.60;;;0.30;;
65665;SDS011;52365;47.464;18.976;2023-03-11T00:16:27;1.37;;;0.40;;
65665;SDS011;52365;47.464;18.976;2023-03-11T00:17:03;1.40;;;0.30;;
65665;SDS011;52365;47.464;18.976;2023-03-11T00:17:39;0.62;;;0.40;;
65665;SDS011;52365;47.464;18.976;2023-03-11T00:18:15;0.80;;;0.30;;
65665;SDS011;52365;47.464;18.976;2023-03-11T00:18:52;1.20;;;0.40;;
65665;SDS011;52365;47.464;18.976;2023-03-11T00:19:28;0.52;;;0.40;;
65665;SDS011;52365;47.464;18.976;2023-03-11T00:20:04;0.95;;;0.43;;
65665;SDS011;52365;47.464;18.976;2023-03-11T00:20:43;0.75;;;0.30;;
65665;SDS011;52365;47.464;18.976;2023-03-11T00:21:21;1.48;;;0.40;;
65665;SDS011;52365;47.464;18.976;2023-03-11T00:21:57;0.93;;;0.40;;
65665;SDS011;52365;47.464;18.976;2023-03-11T00:22:33;0.60;;;0.40;;
65665;SDS011;52365;47.464;18.976;2023-03-11T00:23:10;1.50;;;0.40;;
65665;SDS011;52365;47.464;18.976;2023-03-11T00:23:48;0.55;;;0.35;;
65665;SDS011;52365;47.464;18.976;2023-03-11T00:24:24;0.85;;;0.40;;
65665;SDS011;52365;47.464;18.976;2023-03-11T00:25:00;0.90;;;0.40;;
65665;SDS011;52365;47.464;18.976;2023-03-11T00:25:37;0.68;;;0.30;;
65665;SDS011;52365;47.464;18.976;2023-03-11T00:26:13;0.73;;;0.30;;
65665;SDS011;52365;47.464;18.976;2023-03-11T00:26:50;0.70;;;0.37;;
65665;SDS011;52365;47.464;18.976;2023-03-11T00:27:26;1.00;;;0.43;;
65665;SDS011;52365;47.464;18.976;2023-03-11T00:28:02;0.80;;;0.40;;
65665;SDS011;52365;47.464;18.976;2023-03-11T00:28:39;0.85;;;0.47;;
65665;SDS011;52365;47.464;18.976;2023-03-11T00:29:15;0.68;;;0.40;;
65665;SDS011;52365;47.464;18.976;2023-03-11T00:29:51;0.82;;;0.40;;
65665;SDS011;52365;47.464;18.976;2023-03-11T00:30:27;0.62;;;0.40;;
65665;SDS011;52365;47.464;18.976;2023-03-11T00:31:04;1.00;;;0.40;;
65665;SDS011;52365;47.464;18.976;2023-03-11T00:31:40;1.02;;;0.40;;
65665;SDS011;52365;47.464;18.976;2023-03-11T00:32:16;0.45;;;0.30;;
65665;SDS011;52365;47.464;18.976;2023-03-11T00:32:55;1.23;;;0.30;;
65665;SDS011;52365;47.464;18.976;2023-03-11T00:33:32;0.80;;;0.30;;
65665;SDS011;52365;47.464;18.976;2023-03-11T00:34:08;1.17;;;0.35;;
65665;SDS011;52365;47.464;18.976;2023-03-11T00:34:44;0.68;;;0.30;;
65665;SDS011;52365;47.464;18.976;2023-03-11T00:35:22;0.52;;;0.30;;
65665;SDS011;52365;47.464;18.976;2023-03-11T00:36:00;1.02;;;0.30;;
65665;SDS011;52365;47.464;18.976;2023-03-11T00:36:36;0.57;;;0.32;;
65665;SDS011;52365;47.464;18.976;2023-03-11T00:37:12;0.88;;;0.40;;
65665;SDS011;52365;47.464;18.976;2023-03-11T00:37:51;0.68;;;0.40;;
65665;SDS011;52365;47.464;18.976;2023-03-11T00:38:28;0.50;;;0.40;;
65665;SDS011;52365;47.464;18.976;2023-03-11T00:39:04;0.60;;;0.30;;
65665;SDS011;52365;47.464;18.976;2023-03-11T00:39:45;0.62;;;0.37;;
65665;SDS011;52365;47.464;18.976;2023-03-11T00:40:22;0.77;;;0.47;;
65665;SDS011;52365;47.464;18.976;2023-03-11T00:41:00;0.90;;;0.40;;
65665;SDS011;52365;47.464;18.976;2023-03-11T00:41:36;1.40;;;0.40;;
65665;SDS011;52365;47.464;18.976;2023-03-11T00:42:12;0.77;;;0.40;;
65665;SDS011;52365;47.464;18.976;2023-03-11T00:42:48;0.50;;;0.37;;
65665;SDS011;52365;47.464;18.976;2023-03-11T00:43:24;1.60;;;0.30;;
65665;SDS011;52365;47.464;18.976;2023-03-11T00:44:01;0.90;;;0.50;;
65665;SDS011;52365;47.464;18.976;2023-03-11T00:44:37;2.30;;;0.40;;
65665;SDS011;52365;47.464;18.976;2023-03-11T00:45:13;0.80;;;0.40;;
65665;SDS011;52365;47.464;18.976;2023-03-11T00:45:50;1.55;;;0.50;;
65665;SDS011;52365;47.464;18.976;2023-03-11T00:46:26;1.00;;;0.40;;
65665;SDS011;52365;47.464;18.976;2023-03-11T00:47:04;0.90;;;0.40;;
65665;SDS011;52365;47.464;18.976;2023-03-11T00:47:40;1.27;;;0.45;;
65665;SDS011;52365;47.464;18.976;2023-03-11T00:48:17;0.68;;;0.45;;
65665;SDS011;52365;47.464;18.976;2023-03-11T00:48:53;1.33;;;0.40;;
65665;SDS011;52365;47.464;18.976;2023-03-11T00:49:29;0.80;;;0.40;;
65665;SDS011;52365;47.464;18.976;2023-03-11T00:50:05;0.52;;;0.30;;
65665;SDS011;52365;47.464;18.976;2023-03-11T00:50:42;1.40;;;0.50;;
65665;SDS011;52365;47.464;18.976;2023-03-11T00:51:18;0.90;;;0.43;;
65665;SDS011;52365;47.464;18.976;2023-03-11T00:51:54;0.82;;;0.40;;
65665;SDS011;52365;47.464;18.976;2023-03-11T00:52:30;1.12;;;0.60;;
65665;SDS011;52365;47.464;18.976;2023-03-11T00:53:07;1.00;;;0.40;;
65665;SDS011;52365;47.464;18.976;2023-03-11T00:53:43;1.27;;;0.40;;
65665;SDS011;52365;47.464;18.976;2023-03-11T00:54:19;1.27;;;0.47;;
65665;SDS011;52365;47.464;18.976;2023-03-11T00:54:55;1.37;;;0.60;;
65665;SDS011;52365;47.464;18.976;2023-03-11T00:55:34;2.65;;;0.50;;
65665;SDS011;52365;47.464;18.976;2023-03-11T00:56:11;1.00;;;0.45;;
65665;SDS011;52365;47.464;18.976;2023-03-11T00:56:49;1.70;;;0.43;;
65665;SDS011;52365;47.464;18.976;2023-03-11T00:57:25;1.27;;;0.50;;
65665;SDS011;52365;47.464;18.976;2023-03-11T00:58:04;1.20;;;0.50;;
65665;SDS011;52365;47.464;18.976;2023-03-11T00:58:42;0.60;;;0.40;;
65665;SDS011;52365;47.464;18.976;2023-03-11T00:59:19;1.02;;;0.60;;
65665;SDS011;52365;47.464;18.976;2023-03-11T00:59:55;1.05;;;0.50;;
65665;SDS011;52365;47.464;18.976;2023-03-11T01:00:31;2.42;;;0.60;;
65665;SDS011;52365;47.464;18.976;2023-03-11T01:01:25;1.65;;;0.70;;
65665;SDS011;52365;47.464;18.976;2023-03-11T01:02:02;1.02;;;0.57;;
65665;SDS011;52365;47.464;18.976;2023-03-11T01:02:38;1.75;;;0.70;;
65665;SDS011;52365;47.464;18.976;2023-03-11T01:03:14;1.55;;;0.57;;
65665;SDS011;52365;47.464;18.976;2023-03-11T01:03:50;1.12;;;0.50;;
65665;SDS011;52365;47.464;18.976;2023-03-11T01:04:26;1.73;;;0.60;;
65665;SDS011;52365;47.464;18.976;2023-03-11T01:05:02;1.30;;;0.60;;
65665;SDS011;52365;47.464;18.976;2023-03-11T01:05:40;1.40;;;0.60;;
65665;SDS011;52365;47.464;18.976;2023-03-11T01:06:16;1.25;;;0.50;;
65665;SDS011;52365;47.464;18.976;2023-03-11T01:06:52;1.37;;;0.50;;
65665;SDS011;52365;47.464;18.976;2023-03-11T01:07:28;1.67;;;0.50;;
65665;SDS011;52365;47.464;18.976;2023-03-11T01:08:04;0.98;;;0.50;;
65665;SDS011;52365;47.464;18.976;2023-03-11T01:08:40;2.92;;;0.65;;
65665;SDS011;52365;47.464;18.976;2023-03-11T01:09:16;1.30;;;0.50;;
65665;SDS011;52365;47.464;18.976;2023-03-11T01:09:52;1.80;;;0.50;;
65665;SDS011;52365;47.464;18.976;2023-03-11T01:10:29;2.13;;;0.53;;
65665;SDS011;52365;47.464;18.976;2023-03-11T01:11:07;1.80;;;0.40;;
65665;SDS011;52365;47.464;18.976;2023-03-11T01:11:43;1.65;;;0.50;;
65665;SDS011;52365;47.464;18.976;2023-03-11T01:12:19;1.70;;;0.43;;
65665;SDS011;52365;47.464;18.976;2023-03-11T01:12:55;1.42;;;0.47;;
65665;SDS011;52365;47.464;18.976;2023-03-11T01:13:32;1.12;;;0.50;;
65665;SDS011;52365;47.464;18.976;2023-03-11T01:14:09;1.58;;;0.45;;
65665;SDS011;52365;47.464;18.976;2023-03-11T01:14:45;1.23;;;0.70;;
65665;SDS011;52365;47.464;18.976;2023-03-11T01:15:23;1.60;;;0.50;;
65665;SDS011;52365;47.464;18.976;2023-03-11T01:16:09;1.00;;;0.50;;
65665;SDS011;52365;47.464;18.976;2023-03-11T01:16:45;1.40;;;0.50;;
65665;SDS011;52365;47.464;18.976;2023-03-11T01:17:22;1.67;;;0.43;;
65665;SDS011;52365;47.464;18.976;2023-03-11T01:17:58;1.40;;;0.50;;
65665;SDS011;52365;47.464;18.976;2023-03-11T01:18:34;1.60;;;0.50;;
65665;SDS011;52365;47.464;18.976;2023-03-11T01:19:10;1.30;;;0.50;;
65665;SDS011;52365;47.464;18.976;2023-03-11T01:19:47;1.30;;;0.50;;
65665;SDS011;52365;47.464;18.976;2023-03-11T01:20:24;1.58;;;0.50;;
65665;SDS011;52365;47.464;18.976;2023-03-11T01:21:00;1.37;;;0.50;;
65665;SDS011;52365;47.464;18.976;2023-03-11T01:21:37;1.05;;;0.60;;
65665;SDS011;52365;47.464;18.976;2023-03-11T01:22:14;1.95;;;0.60;;
65665;SDS011;52365;47.464;18.976;2023-03-11T01:22:51;1.33;;;0.50;;
65665;SDS011;52365;47.464;18.976;2023-03-11T01:23:27;1.80;;;0.60;;
65665;SDS011;52365;47.464;18.976;2023-03-11T01:24:03;1.58;;;0.50;;
65665;SDS011;52365;47.464;18.976;2023-03-11T01:24:40;1.73;;;0.60;;
65665;SDS011;52365;47.464;18.976;2023-03-11T01:25:17;1.30;;;0.50;;
65665;SDS011;52365;47.464;18.976;2023-03-11T01:25:54;2.15;;;0.60;;
65665;SDS011;52365;47.464;18.976;2023-03-11T01:26:31;1.30;;;0.50;;
65665;SDS011;52365;47.464;18.976;2023-03-11T01:27:07;1.73;;;0.50;;
65665;SDS011;52365;47.464;18.976;2023-03-11T01:27:43;1.02;;;0.50;;
65665;SDS011;52365;47.464;18.976;2023-03-11T01:28:19;2.28;;;0.60;;
65665;SDS011;52365;47.464;18.976;2023-03-11T01:28:55;1.00;;;0.50;;
65665;SDS011;52365;47.464;18.976;2023-03-11T01:29:31;2.30;;;0.52;;
65665;SDS011;52365;47.464;18.976;2023-03-11T01:30:08;2.00;;;0.57;;
65665;SDS011;52365;47.464;18.976;2023-03-11T01:30:47;1.45;;;0.55;;
65665;SDS011;52365;47.464;18.976;2023-03-11T01:31:23;1.90;;;0.70;;
65665;SDS011;52365;47.464;18.976;2023-03-11T01:31:59;3.28;;;0.60;;
65665;SDS011;52365;47.464;18.976;2023-03-11T01:32:35;1.58;;;0.62;;
65665;SDS011;52365;47.464;18.976;2023-03-11T01:33:15;1.87;;;0.65;;
65665;SDS011;52365;47.464;18.976;2023-03-11T01:33:53;1.83;;;0.60;;
65665;SDS011;52365;47.464;18.976;2023-03-11T01:34:29;2.12;;;0.52;;
65665;SDS011;52365;47.464;18.976;2023-03-11T01:35:06;1.87;;;0.60;;
65665;SDS011;52365;47.464;18.976;2023-03-11T01:35:42;1.35;;;0.60;;
65665;SDS011;52365;47.464;18.976;2023-03-11T01:36:19;2.35;;;0.70;;
65665;SDS011;52365;47.464;18.976;2023-03-11T01:36:55;2.00;;;0.75;;
65665;SDS011;52365;47.464;18.976;2023-03-11T01:37:31;2.12;;;0.60;;
65665;SDS011;52365;47.464;18.976;2023-03-11T01:38:07;1.58;;;0.77;;
65665;SDS011;52365;47.464;18.976;2023-03-11T01:38:44;1.33;;;0.60;;
65665;SDS011;52365;47.464;18.976;2023-03-11T01:39:20;1.75;;;0.77;;
65665;SDS011;52365;47.464;18.976;2023-03-11T01:39:56;2.10;;;0.70;;
65665;SDS011;52365;47.464;18.976;2023-03-11T01:40:34;2.05;;;0.73;;
65665;SDS011;52365;47.464;18.976;2023-03-11T01:41:21;2.35;;;0.75;;
65665;SDS011;52365;47.464;18.976;2023-03-11T01:41:58;1.55;;;0.60;;
65665;SDS011;52365;47.464;18.976;2023-03-11T01:42:34;2.45;;;0.62;;
65665;SDS011;52365;47.464;18.976;2023-03-11T01:44:11;1.25;;;0.60;;
65665;SDS011;52365;47.464;18.976;2023-03-11T01:44:48;1.48;;;0.60;;
65665;SDS011;52365;47.464;18.976;2023-03-11T01:45:32;2.15;;;0.70;;
65665;SDS011;52365;47.464;18.976;2023-03-11T01:46:19;1.70;;;0.50;;
65665;SDS011;52365;47.464;18.976;2023-03-11T01:47:37;1.05;;;0.60;;
65665;SDS011;52365;47.464;18.976;2023-03-11T01:48:14;1.85;;;0.62;;
65665;SDS011;52365;47.464;18.976;2023-03-11T01:48:52;1.48;;;0.60;;
65665;SDS011;52365;47.464;18.976;2023-03-11T01:49:29;1.73;;;0.80;;
65665;SDS011;52365;47.464;18.976;2023-03-11T01:50:06;2.12;;;0.60;;
65665;SDS011;52365;47.464;18.976;2023-03-11T01:50:48;2.22;;;0.70;;
65665;SDS011;52365;47.464;18.976;2023-03-11T01:51:30;2.03;;;0.60;;
65665;SDS011;52365;47.464;18.976;2023-03-11T01:52:17;2.10;;;0.70;;
65665;SDS011;52365;47.464;18.976;2023-03-11T01:52:54;2.85;;;0.52;;
65665;SDS011;52365;47.464;18.976;2023-03-11T01:53:30;1.50;;;0.68;;
65665;SDS011;52365;47.464;18.976;2023-03-11T01:54:11;2.45;;;0.70;;
65665;SDS011;52365;47.464;18.976;2023-03-11T01:54:50;2.25;;;0.80;;
65665;SDS011;52365;47.464;18.976;2023-03-11T01:55:26;2.78;;;0.70;;
65665;SDS011;52365;47.464;18.976;2023-03-11T01:56:03;2.30;;;0.60;;
65665;SDS011;52365;47.464;18.976;2023-03-11T01:56:40;1.62;;;0.60;;
65665;SDS011;52365;47.464;18.976;2023-03-11T01:57:17;1.40;;;0.50;;
65665;SDS011;52365;47.464;18.976;2023-03-11T01:57:53;2.53;;;0.65;;
65665;SDS011;52365;47.464;18.976;2023-03-11T01:58:31;1.73;;;0.65;;
65665;SDS011;52365;47.464;18.976;2023-03-11T01:59:13;2.55;;;0.68;;
65665;SDS011;52365;47.464;18.976;2023-03-11T01:59:55;3.30;;;0.70;;
65665;SDS011;52365;47.464;18.976;2023-03-11T02:00:35;1.48;;;0.60;;
65665;SDS011;52365;47.464;18.976;2023-03-11T02:01:12;1.25;;;0.60;;
65665;SDS011;52365;47.464;18.976;2023-03-11T02:01:50;1.58;;;0.70;;
65665;SDS011;52365;47.464;18.976;2023-03-11T02:02:33;1.87;;;0.65;;
65665;SDS011;52365;47.464;18.976;2023-03-11T02:03:34;1.62;;;0.60;;
65665;SDS011;52365;47.464;18.976;2023-03-11T02:04:10;2.25;;;0.73;;
65665;SDS011;52365;47.464;18.976;2023-03-11T02:04:47;2.60;;;0.77;;
65665;SDS011;52365;47.464;18.976;2023-03-11T02:05:25;2.75;;;0.70;;
65665;SDS011;52365;47.464;18.976;2023-03-11T02:06:02;2.28;;;0.68;;
65665;SDS011;52365;47.464;18.976;2023-03-11T02:06:41;1.17;;;0.57;;
65665;SDS011;52365;47.464;18.976;2023-03-11T02:07:17;1.85;;;0.62;;
65665;SDS011;52365;47.464;18.976;2023-03-11T02:07:54;2.25;;;0.70;;
65665;SDS011;52365;47.464;18.976;2023-03-11T02:08:30;1.20;;;0.47;;
65665;SDS011;52365;47.464;18.976;2023-03-11T02:09:08;1.62;;;0.65;;
65665;SDS011;52365;47.464;18.976;2023-03-11T02:09:44;1.70;;;0.70;;
65665;SDS011;52365;47.464;18.976;2023-03-11T02:10:20;2.20;;;0.70;;
65665;SDS011;52365;47.464;18.976;2023-03-11T02:10:57;1.12;;;0.50;;
65665;SDS011;52365;47.464;18.976;2023-03-11T02:11:33;2.47;;;0.70;;
65665;SDS011;52365;47.464;18.976;2023-03-11T02:12:10;1.23;;;0.65;;
65665;SDS011;52365;47.464;18.976;2023-03-11T02:12:48;1.48;;;0.60;;
65665;SDS011;52365;47.464;18.976;2023-03-11T02:13:26;1.75;;;0.68;;
65665;SDS011;52365;47.464;18.976;2023-03-11T02:14:03;2.47;;;0.60;;
65665;SDS011;52365;47.464;18.976;2023-03-11T02:14:44;3.12;;;0.73;;
65665;SDS011;52365;47.464;18.976;2023-03-11T02:15:23;1.67;;;0.70;;
65665;SDS011;52365;47.464;18.976;2023-03-11T02:16:01;3.78;;;0.70;;
65665;SDS011;52365;47.464;18.976;2023-03-11T02:16:38;2.05;;;0.60;;
65665;SDS011;52365;47.464;18.976;2023-03-11T02:17:14;1.98;;;0.70;;
65665;SDS011;52365;47.464;18.976;2023-03-11T02:17:50;2.30;;;0.70;;
65665;SDS011;52365;47.464;18.976;2023-03-11T02:18:28;2.00;;;0.60;;
65665;SDS011;52365;47.464;18.976;2023-03-11T02:22:04;3.72;;;0.73;;
65665;SDS011;52365;47.464;18.976;2023-03-11T02:22:41;2.62;;;0.65;;
65665;SDS011;52365;47.464;18.976;2023-03-11T02:23:18;2.50;;;0.80;;
65665;SDS011;52365;47.464;18.976;2023-03-11T02:25:52;1.30;;;0.60;;
65665;SDS011;52365;47.464;18.976;2023-03-11T02:27:32;1.70;;;0.60;;
65665;SDS011;52365;47.464;18.976;2023-03-11T02:28:13;1.45;;;0.50;;
65665;SDS011;52365;47.464;18.976;2023-03-11T02:28:51;2.00;;;0.68;;
65665;SDS011;52365;47.464;18.976;2023-03-11T02:29:28;1.23;;;0.60;;
65665;SDS011;52365;47.464;18.976;2023-03-11T02:30:05;1.20;;;0.50;;
65665;SDS011;52365;47.464;18.976;2023-03-11T02:30:43;1.60;;;0.55;;
65665;SDS011;52365;47.464;18.976;2023-03-11T02:31:19;1.70;;;0.60;;
65665;SDS011;52365;47.464;18.976;2023-03-11T02:31:56;1.30;;;0.60;;
65665;SDS011;52365;47.464;18.976;2023-03-11T02:32:34;1.55;;;0.65;;
65665;SDS011;52365;47.464;18.976;2023-03-11T02:33:10;1.67;;;0.60;;
65665;SDS011;52365;47.464;18.976;2023-03-11T02:33:48;2.20;;;0.60;;
65665;SDS011;52365;47.464;18.976;2023-03-11T02:34:29;2.05;;;0.65;;
65665;SDS011;52365;47.464;18.976;2023-03-11T02:35:07;2.67;;;0.70;;
65665;SDS011;52365;47.464;18.976;2023-03-11T02:35:43;2.65;;;0.60;;
65665;SDS011;52365;47.464;18.976;2023-03-11T02:36:33;1.92;;;0.60;;
65665;SDS011;52365;47.464;18.976;2023-03-11T02:37:17;1.85;;;0.68;;
65665;SDS011;52365;47.464;18.976;2023-03-11T02:37:53;1.30;;;0.70;;
65665;SDS011;52365;47.464;18.976;2023-03-11T02:38:29;2.30;;;0.68;;
65665;SDS011;52365;47.464;18.976;2023-03-11T02:39:06;2.67;;;0.70;;
65665;SDS011;52365;47.464;18.976;2023-03-11T02:39:47;1.77;;;0.60;;
65665;SDS011;52365;47.464;18.976;2023-03-11T02:41:10;1.87;;;0.70;;
65665;SDS011;52365;47.464;18.976;2023-03-11T02:41:46;2.00;;;0.55;;
65665;SDS011;52365;47.464;18.976;2023-03-11T02:42:24;1.80;;;0.50;;
65665;SDS011;52365;47.464;18.976;2023-03-11T02:43:06;3.33;;;0.60;;
65665;SDS011;52365;47.464;18.976;2023-03-11T02:43:46;1.62;;;0.60;;
65665;SDS011;52365;47.464;18.976;2023-03-11T02:44:23;2.03;;;0.60;;
65665;SDS011;52365;47.464;18.976;2023-03-11T02:45:02;2.78;;;0.62;;
65665;SDS011;52365;47.464;18.976;2023-03-11T02:45:43;2.25;;;0.60;;
65665;SDS011;52365;47.464;18.976;2023-03-11T02:46:21;1.98;;;0.70;;
65665;SDS011;52365;47.464;18.976;2023-03-11T02:46:57;1.65;;;0.60;;
65665;SDS011;52365;47.464;18.976;2023-03-11T02:47:34;1.92;;;0.77;;
65665;SDS011;52365;47.464;18.976;2023-03-11T02:48:13;2.00;;;0.60;;
65665;SDS011;52365;47.464;18.976;2023-03-11T02:48:51;1.35;;;0.50;;
65665;SDS011;52365;47.464;18.976;2023-03-11T02:49:28;2.37;;;0.70;;
65665;SDS011;52365;47.464;18.976;2023-03-11T02:50:07;2.70;;;0.80;;
65665;SDS011;52365;47.464;18.976;2023-03-11T02:50:46;1.85;;;0.70;;
65665;SDS011;52365;47.464;18.976;2023-03-11T02:51:22;1.65;;;0.70;;
65665;SDS011;52365;47.464;18.976;2023-03-11T02:51:58;2.17;;;0.60;;
65665;SDS011;52365;47.464;18.976;2023-03-11T02:52:34;2.33;;;0.65;;
65665;SDS011;52365;47.464;18.976;2023-03-11T02:53:11;2.50;;;0.60;;
65665;SDS011;52365;47.464;18.976;2023-03-11T02:53:48;2.50;;;0.62;;
65665;SDS011;52365;47.464;18.976;2023-03-11T02:54:27;3.60;;;0.70;;
65665;SDS011;52365;47.464;18.976;2023-03-11T02:55:03;1.65;;;0.60;;
65665;SDS011;52365;47.464;18.976;2023-03-11T02:55:40;2.30;;;0.62;;
65665;SDS011;52365;47.464;18.976;2023-03-11T02:56:16;1.60;;;0.70;;
65665;SDS011;52365;47.464;18.976;2023-03-11T02:56:52;2.15;;;0.65;;
65665;SDS011;52365;47.464;18.976;2023-03-11T02:57:28;2.30;;;0.73;;
65665;SDS011;52365;47.464;18.976;2023-03-11T02:58:04;1.90;;;0.60;;
65665;SDS011;52365;47.464;18.976;2023-03-11T02:58:40;1.33;;;0.50;;
65665;SDS011;52365;47.464;18.976;2023-03-11T02:59:16;1.70;;;0.70;;
65665;SDS011;52365;47.464;18.976;2023-03-11T02:59:53;1.80;;;0.70;;
65665;SDS011;52365;47.464;18.976;2023-03-11T03:00:29;1.48;;;0.60;;
65665;SDS011;52365;47.464;18.976;2023-03-11T03:01:05;1.55;;;0.70;;
65665;SDS011;52365;47.464;18.976;2023-03-11T03:01:41;2.37;;;0.60;;
65665;SDS011;52365;47.464;18.976;2023-03-11T03:02:17;2.00;;;0.70;;
65665;SDS011;52365;47.464;18.976;2023-03-11T03:02:53;3.17;;;0.60;;
65665;SDS011;52365;47.464;18.976;2023-03-11T03:03:29;3.30;;;0.70;;
65665;SDS011;52365;47.464;18.976;2023-03-11T03:04:05;1.55;;;0.57;;
65665;SDS011;52365;47.464;18.976;2023-03-11T03:04:41;2.35;;;0.60;;
65665;SDS011;52365;47.464;18.976;2023-03-11T03:05:18;2.33;;;0.70;;
65665;SDS011;52365;47.464;18.976;2023-03-11T03:05:55;1.65;;;0.60;;
65665;SDS011;52365;47.464;18.976;2023-03-11T03:06:31;2.92;;;0.80;;
65665;SDS011;52365;47.464;18.976;2023-03-11T03:07:07;1.60;;;0.57;;
65665;SDS011;52365;47.464;18.976;2023-03-11T03:07:44;2.33;;;0.70;;
65665;SDS011;52365;47.464;18.976;2023-03-11T03:08:20;1.70;;;0.60;;
65665;SDS011;52365;47.464;18.976;2023-03-11T03:08:56;1.75;;;0.50;;
65665;SDS011;52365;47.464;18.976;2023-03-11T03:09:33;2.12;;;0.80;;
65665;SDS011;52365;47.464;18.976;2023-03-11T03:10:10;3.03;;;0.75;;
65665;SDS011;52365;47.464;18.976;2023-03-11T03:10:46;1.85;;;0.70;;
65665;SDS011;52365;47.464;18.976;2023-03-11T03:11:22;1.58;;;0.60;;
65665;SDS011;52365;47.464;18.976;2023-03-11T03:11:58;1.60;;;0.50;;
65665;SDS011;52365;47.464;18.976;2023-03-11T03:12:34;2.42;;;0.70;;
65665;SDS011;52365;47.464;18.976;2023-03-11T03:13:10;2.95;;;0.80;;
65665;SDS011;52365;47.464;18.976;2023-03-11T03:13:47;1.50;;;0.55;;
65665;SDS011;52365;47.464;18.976;2023-03-11T03:14:23;3.62;;;0.70;;
65665;SDS011;52365;47.464;18.976;2023-03-11T03:14:59;1.42;;;0.50;;
65665;SDS011;52365;47.464;18.976;2023-03-11T03:15:35;1.77;;;0.55;;
65665;SDS011;52365;47.464;18.976;2023-03-11T03:16:11;1.92;;;0.60;;
65665;SDS011;52365;47.464;18.976;2023-03-11T03:16:47;1.55;;;0.50;;
65665;SDS011;52365;47.464;18.976;2023-03-11T03:17:24;2.08;;;0.65;;
65665;SDS011;52365;47.464;18.976;2023-03-11T03:18:00;1.23;;;0.50;;
65665;SDS011;52365;47.464;18.976;2023-03-11T03:18:36;2.72;;;0.57;;
65665;SDS011;52365;47.464;18.976;2023-03-11T03:19:12;1.52;;;0.60;;
65665;SDS011;52365;47.464;18.976;2023-03-11T03:19:49;1.58;;;0.50;;
65665;SDS011;52365;47.464;18.976;2023-03-11T03:20:25;1.45;;;0.50;;
65665;SDS011;52365;47.464;18.976;2023-03-11T03:21:01;1.70;;;0.50;;
65665;SDS011;52365;47.464;18.976;2023-03-11T03:21:37;1.98;;;0.70;;
65665;SDS011;52365;47.464;18.976;2023-03-11T03:22:13;2.17;;;0.60;;
65665;SDS011;52365;47.464;18.976;2023-03-11T03:22:50;1.23;;;0.50;;
65665;SDS011;52365;47.464;18.976;2023-03-11T03:23:26;1.60;;;0.50;;
65665;SDS011;52365;47.464;18.976;2023-03-11T03:24:02;2.15;;;0.70;;
65665;SDS011;52365;47.464;18.976;2023-03-11T03:24:39;2.33;;;0.60;;
65665;SDS011;52365;47.464;18.976;2023-03-11T03:25:15;1.58;;;0.65;;
65665;SDS011;52365;47.464;18.976;2023-03-11T03:25:51;2.00;;;0.60;;
65665;SDS011;52365;47.464;18.976;2023-03-11T03:26:27;2.08;;;0.60;;
65665;SDS011;52365;47.464;18.976;2023-03-11T03:27:03;2.53;;;0.60;;
65665;SDS011;52365;47.464;18.976;2023-03-11T03:27:39;1.30;;;0.62;;
65665;SDS011;52365;47.464;18.976;2023-03-11T03:28:15;1.80;;;0.70;;
65665;SDS011;52365;47.464;18.976;2023-03-11T03:28:52;1.52;;;0.60;;
65665;SDS011;52365;47.464;18.976;2023-03-11T03:29:28;1.73;;;0.62;;
65665;SDS011;52365;47.464;18.976;2023-03-11T03:30:04;2.33;;;0.90;;
65665;SDS011;52365;47.464;18.976;2023-03-11T03:30:41;1.50;;;0.60;;
65665;SDS011;52365;47.464;18.976;2023-03-11T03:31:17;1.65;;;0.50;;
65665;SDS011;52365;47.464;18.976;2023-03-11T03:31:53;1.67;;;0.43;;
65665;SDS011;52365;47.464;18.976;2023-03-11T03:32:29;1.30;;;0.50;;
65665;SDS011;52365;47.464;18.976;2023-03-11T03:33:06;1.65;;;0.60;;
65665;SDS011;52365;47.464;18.976;2023-03-11T03:33:42;1.80;;;0.55;;
65665;SDS011;52365;47.464;18.976;2023-03-11T03:34:19;2.28;;;0.62;;
65665;SDS011;52365;47.464;18.976;2023-03-11T03:34:55;2.08;;;0.60;;
65665;SDS011;52365;47.464;18.976;2023-03-11T03:35:33;1.52;;;0.60;;
65665;SDS011;52365;47.464;18.976;2023-03-11T03:36:10;2.50;;;0.50;;
65665;SDS011;52365;47.464;18.976;2023-03-11T03:36:48;1.73;;;0.50;;
65665;SDS011;52365;47.464;18.976;2023-03-11T03:37:27;2.28;;;0.60;;
65665;SDS011;52365;47.464;18.976;2023-03-11T03:38:06;1.48;;;0.47;;
65665;SDS011;52365;47.464;18.976;2023-03-11T03:38:42;0.75;;;0.50;;
65665;SDS011;52365;47.464;18.976;2023-03-11T03:39:19;2.00;;;0.50;;
65665;SDS011;52365;47.464;18.976;2023-03-11T03:39:55;1.12;;;0.50;;
65665;SDS011;52365;47.464;18.976;2023-03-11T03:40:31;2.35;;;0.57;;
65665;SDS011;52365;47.464;18.976;2023-03-11T03:41:08;3.37;;;0.55;;
65665;SDS011;52365;47.464;18.976;2023-03-11T03:41:44;1.40;;;0.50;;
65665;SDS011;52365;47.464;18.976;2023-03-11T03:42:20;1.48;;;0.57;;
65665;SDS011;52365;47.464;18.976;2023-03-11T03:42:56;1.50;;;0.50;;
65665;SDS011;52365;47.464;18.976;2023-03-11T03:43:33;2.03;;;0.65;;
65665;SDS011;52365;47.464;18.976;2023-03-11T03:44:09;1.55;;;0.50;;
65665;SDS011;52365;47.464;18.976;2023-03-11T03:44:45;1.60;;;0.50;;
65665;SDS011;52365;47.464;18.976;2023-03-11T03:45:21;1.80;;;0.60;;
65665;SDS011;52365;47.464;18.976;2023-03-11T03:45:58;1.30;;;0.40;;
65665;SDS011;52365;47.464;18.976;2023-03-11T03:46:35;1.27;;;0.50;;
65665;SDS011;52365;47.464;18.976;2023-03-11T03:47:13;1.05;;;0.40;;
65665;SDS011;52365;47.464;18.976;2023-03-11T03:47:49;1.35;;;0.40;;
65665;SDS011;52365;47.464;18.976;2023-03-11T03:48:25;1.42;;;0.40;;
65665;SDS011;52365;47.464;18.976;2023-03-11T03:49:01;1.27;;;0.50;;
65665;SDS011;52365;47.464;18.976;2023-03-11T03:49:37;1.37;;;0.50;;